Time;durP1;ratioP1;P1;durP2;ratioP2;P2;SDS_P1;SDS_P2;PMS_P1;PMS_P2;Temp;Humidity;BMP_temperature;BMP_pressure;BME280_temperature;BME280_humidity;BME280_pressure;Samples;Min_cycle;Max_cycle;Signal;HPM_P1;HPM_P2
2021/09/28 00:35:00;;;;;;;1.00;1.00;;;;;;;7.77;87.14;100966.28;6430380;22;20464;-77
2021/09/28 00:37:45;;;;;;;1.50;1.50;;;;;;;7.74;87.45;100963.78;6430659;22;20025;-76
2021/09/28 00:40:30;;;;;;;0.93;0.93;;;;;;;7.73;87.55;100966.41;6431929;22;20078;-76
2021/09/28 00:43:15;;;;;;;1.45;1.45;;;;;;;7.70;87.74;100964.75;6431654;22;20028;-76
2021/09/28 00:45:59;;;;;;;1.23;1.23;;;;;;;7.71;87.96;100970.78;6430145;22;20086;-75
2021/09/28 00:48:43;;;;;;;0.90;0.90;;;;;;;7.69;87.94;100975.19;6431961;22;20024;-76
2021/09/28 00:51:28;;;;;;;1.00;1.00;;;;;;;7.71;87.71;100974.25;6431773;22;20032;-77
2021/09/28 00:54:13;;;;;;;1.17;1.17;;;;;;;7.75;87.36;100978.50;6431688;22;20062;-77
2021/09/28 00:56:57;;;;;;;1.10;1.10;;;;;;;7.77;87.30;100981.03;6431948;22;20410;-76
2021/09/28 00:59:41;;;;;;;1.45;1.45;;;;;;;7.78;87.03;100982.75;6430511;22;20028;-76
2021/09/28 01:02:26;;;;;;;1.15;1.15;;;;;;;7.78;87.04;100973.22;6431774;22;20024;-77
2021/09/28 01:05:10;;;;;;;1.00;1.00;;;;;;;7.76;87.00;100985.38;6431402;22;20364;-76
2021/09/28 01:07:55;;;;;;;3.88;1.63;;;;;;;7.74;86.72;100991.50;6430187;22;20124;-74
2021/09/28 01:10:39;;;;;;;0.50;0.50;;;;;;;7.71;86.53;100991.59;6431506;22;20069;-76
2021/09/28 01:13:24;;;;;;;0.70;0.70;;;;;;;7.68;86.75;100989.06;6399558;22;20361;-76
2021/09/28 01:16:10;;;;;;;2.40;2.28;;;;;;;7.67;86.80;100997.75;6399171;22;20427;-76
2021/09/28 01:18:55;;;;;;;1.23;1.23;;;;;;;7.69;86.71;100993.38;6375367;22;20071;-75
2021/09/28 01:21:39;;;;;;;0.88;0.88;;;;;;;7.70;86.95;101005.47;6399706;22;20044;-76
2021/09/28 01:24:24;;;;;;;3.72;1.52;;;;;;;7.69;86.66;101009.81;6398182;22;20479;-77
2021/09/28 01:27:08;;;;;;;1.35;1.17;;;;;;;7.67;87.02;101008.13;6399073;22;20368;-76
2021/09/28 01:29:53;;;;;;;1.38;1.38;;;;;;;7.68;86.33;101009.84;6399353;22;20128;-76
2021/09/28 01:32:38;;;;;;;0.98;0.98;;;;;;;7.64;86.15;101018.63;6397913;22;20483;-76
2021/09/28 01:35:22;;;;;;;1.35;1.33;;;;;;;7.61;86.88;101011.75;6398992;22;20483;-74
2021/09/28 01:38:07;;;;;;;1.70;1.50;;;;;;;7.61;86.54;101019.56;6397703;22;20077;-76
2021/09/28 01:40:51;;;;;;;1.35;1.33;;;;;;;7.54;87.07;101024.91;6399193;22;20106;-74
2021/09/28 01:43:35;;;;;;;1.17;1.17;;;;;;;7.48;86.48;101019.88;6399050;22;20033;-74
2021/09/28 01:46:20;;;;;;;1.50;1.50;;;;;;;7.48;86.83;101017.28;6397755;22;20391;-74
2021/09/28 01:49:05;;;;;;;2.78;1.58;;;;;;;7.47;86.58;101029.41;6398949;22;20048;-75
2021/09/28 01:51:49;;;;;;;1.40;1.40;;;;;;;7.47;86.65;101044.13;6397607;22;20511;-76
2021/09/28 01:54:33;;;;;;;7.30;1.33;;;;;;;7.47;86.57;101038.94;6399056;22;20070;-75
2021/09/28 01:57:18;;;;;;;1.27;1.27;;;;;;;7.44;86.77;101039.88;6398595;22;20033;-75
2021/09/28 02:00:03;;;;;;;1.20;1.20;;;;;;;7.46;86.38;101045.88;6398819;22;20075;-76
2021/09/28 02:02:55;;;;;;;2.22;2.13;;;;;;;7.42;86.42;101052.06;6398927;22;20079;-77
2021/09/28 02:05:40;;;;;;;0.90;0.90;;;;;;;7.43;86.33;101050.31;6398578;22;20106;-74
2021/09/28 02:08:25;;;;;;;1.30;1.30;;;;;;;7.42;86.18;101043.41;6399006;22;20025;-74
2021/09/28 02:11:09;;;;;;;0.85;0.85;;;;;;;7.42;85.74;101051.19;6397134;22;20024;-76
2021/09/28 02:13:54;;;;;;;1.20;1.20;;;;;;;7.38;84.11;101049.53;6397457;22;20101;-77
2021/09/28 02:16:38;;;;;;;1.00;1.00;;;;;;;7.40;83.63;101073.72;6397111;22;20033;-78
2021/09/28 02:19:23;;;;;;;1.33;1.33;;;;;;;7.38;84.18;101062.53;6375459;22;20073;-79
2021/09/28 02:22:08;;;;;;;1.83;1.83;;;;;;;7.34;84.04;101069.53;6398443;22;20020;-79
2021/09/28 02:24:53;;;;;;;0.60;0.60;;;;;;;7.38;83.75;101070.31;6397355;22;20056;-76
2021/09/28 02:27:37;;;;;;;0.98;0.98;;;;;;;7.36;83.62;101069.53;6398543;22;20681;-76
2021/09/28 02:30:22;;;;;;;1.35;1.35;;;;;;;7.34;83.79;101075.59;6374150;22;20029;-76
2021/09/28 02:33:06;;;;;;;1.40;1.40;;;;;;;7.37;83.15;101079.84;6398620;22;20479;-77
2021/09/28 02:35:51;;;;;;;1.08;1.08;;;;;;;7.37;83.40;101084.19;6398237;22;20029;-78
2021/09/28 02:38:36;;;;;;;1.15;1.15;;;;;;;7.37;82.52;101089.38;6374981;22;20025;-76
2021/09/28 02:41:21;;;;;;;1.13;1.02;;;;;;;7.33;82.81;101089.47;6398231;22;20055;-76
2021/09/28 02:44:05;;;;;;;0.65;0.65;;;;;;;7.32;82.18;101092.09;6398431;22;20042;-77
2021/09/28 02:46:50;;;;;;;1.30;1.20;;;;;;;7.33;83.19;101086.88;6398300;22;20032;-76
2021/09/28 02:49:34;;;;;;;0.98;0.98;;;;;;;7.37;82.60;101086.78;6398547;22;20071;-75
2021/09/28 02:52:19;;;;;;;1.38;1.33;;;;;;;7.32;81.47;101089.50;6398032;22;20360;-77
2021/09/28 02:55:07;;;;;;;1.45;1.45;;;;;;;7.32;81.78;101089.50;6374680;22;20044;-77
2021/09/28 02:57:52;;;;;;;1.33;1.33;;;;;;;7.25;81.95;101086.19;6374757;22;20051;-77
2021/09/28 03:00:36;;;;;;;1.02;1.02;;;;;;;7.25;80.98;101106.97;6398614;22;20028;-75
2021/09/28 03:03:21;;;;;;;0.90;0.90;;;;;;;7.27;81.06;101093.94;6398012;22;20028;-77
2021/09/28 03:06:05;;;;;;;0.93;0.93;;;;;;;7.26;81.20;101116.44;6397959;22;20078;-76
2021/09/28 03:08:50;;;;;;;2.70;1.38;;;;;;;7.25;81.27;101112.16;6398270;22;20025;-73
2021/09/28 03:57:07;;;;;;;1.13;1.13;;;;;;;6.31;82.94;101185.75;6391692;22;20044;-73
2021/09/28 04:00:18;;;;;;;0.68;0.68;;;;;;;6.24;81.72;101177.19;6344595;22;20645;-73
2021/09/28 04:03:07;;;;;;;1.00;1.00;;;;;;;6.17;81.55;101167.81;6343777;22;20373;-73
2021/09/28 04:06:04;;;;;;;1.83;1.75;;;;;;;6.31;81.79;101185.75;6367952;22;20415;-76
2021/09/28 04:09:02;;;;;;;1.08;1.08;;;;;;;6.09;81.27;101148.03;6339208;22;20056;-76
2021/09/28 04:11:47;;;;;;;1.08;1.08;;;;;;;6.38;81.72;101194.28;6321944;22;20052;-72
2021/09/28 04:14:31;;;;;;;1.25;1.25;;;;;;;6.39;81.34;101189.06;6366834;22;20028;-73
2021/09/28 04:17:16;;;;;;;1.30;1.30;;;;;;;6.43;80.75;101201.09;6365812;22;20476;-73
2021/09/28 04:20:00;;;;;;;1.00;1.00;;;;;;;6.42;81.10;101206.28;6365993;22;20411;-73
2021/09/28 04:22:45;;;;;;;1.20;1.20;;;;;;;6.45;80.79;101201.06;6365679;22;20025;-74
2021/09/28 04:25:29;;;;;;;1.13;1.10;;;;;;;6.47;81.28;101210.53;6365789;22;20097;-73
2021/09/28 04:28:13;;;;;;;1.33;1.27;;;;;;;6.46;80.45;101210.56;6342158;22;20314;-74
2021/09/28 04:30:58;;;;;;;0.77;0.77;;;;;;;6.46;80.79;101215.75;6365671;22;20029;-73
2021/09/28 04:33:43;;;;;;;0.65;0.65;;;;;;;6.46;80.82;101203.63;6365891;22;20543;-74
2021/09/28 04:36:28;;;;;;;1.00;1.00;;;;;;;6.46;80.38;101215.75;6342331;22;20048;-73
2021/09/28 04:39:13;;;;;;;0.93;0.93;;;;;;;6.48;80.68;101216.59;6364649;22;20114;-73
2021/09/28 04:41:57;;;;;;;2.10;1.85;;;;;;;6.46;80.21;101220.94;6365420;22;20040;-74
2021/09/28 04:44:42;;;;;;;0.98;0.98;;;;;;;6.48;80.49;101225.22;6365532;22;20041;-74
2021/09/28 04:47:55;;;;;;;0.70;0.70;;;;;;;6.40;80.14;101232.28;6342195;22;20088;-76
2021/09/28 04:50:43;;;;;;;0.75;0.75;;;;;;;6.40;81.63;101231.41;6366932;22;20033;-74
2021/09/28 04:53:34;;;;;;;1.20;1.15;;;;;;;6.45;81.42;101234.78;6344702;22;20056;-74
2021/09/28 04:56:37;;;;;;;3.33;2.13;;;;;;;6.38;81.36;101230.59;6368384;22;20117;-75
2021/09/28 04:59:51;;;;;;;2.63;2.53;;;;;;;6.20;81.23;101214.44;6336602;22;20028;-76
2021/09/28 05:03:18;;;;;;;1.45;1.42;;;;;;;6.45;81.77;101239.97;6368626;22;20117;-75
2021/09/28 05:06:02;;;;;;;3.65;3.35;;;;;;;6.43;81.60;101252.09;6346429;22;20029;-75
2021/09/28 05:08:47;;;;;;;2.22;2.13;;;;;;;6.42;81.46;101247.78;6368718;22;20025;-73
2021/09/28 05:11:35;;;;;;;1.25;1.25;;;;;;;6.43;81.42;101246.91;6344777;22;20043;-73
2021/09/28 05:15:00;;;;;;;1.30;1.30;;;;;;;6.45;82.02;101264.16;6345281;22;20542;-76
2021/09/28 05:18:19;;;;;;;1.52;1.52;;;;;;;6.35;80.70;101238.41;6368223;22;20519;-75
2021/09/28 05:21:07;;;;;;;2.08;1.98;;;;;;;6.28;80.51;101219.50;6344376;22;20078;-73
2021/09/28 05:24:25;;;;;;;2.08;1.98;;;;;;;6.51;80.19;101264.06;6368324;22;20025;-76
2021/09/28 05:27:09;;;;;;;2.63;2.53;;;;;;;6.51;80.49;101271.84;6366875;22;20064;-74
2021/09/28 05:29:55;;;;;;;1.73;1.73;;;;;;;6.52;80.84;101281.34;6368007;22;20041;-72
2021/09/28 05:32:39;;;;;;;1.42;1.17;;;;;;;6.56;80.56;101280.44;6345036;22;20069;-76
2021/09/28 05:35:24;;;;;;;1.38;1.38;;;;;;;6.54;80.18;101276.16;6369077;22;20084;-74
2021/09/28 05:38:09;;;;;;;1.92;1.88;;;;;;;6.53;79.90;101279.63;6343669;22;20070;-75
2021/09/28 05:40:53;;;;;;;2.28;2.17;;;;;;;6.59;79.01;101289.91;6345172;22;20154;-74
2021/09/28 05:43:41;;;;;;;2.13;2.03;;;;;;;6.57;79.09;101292.53;6368686;22;20033;-73
2021/09/28 05:46:25;;;;;;;1.80;1.75;;;;;;;6.63;78.79;101292.44;6368422;22;20500;-73
2021/09/28 05:49:10;;;;;;;1.33;1.33;;;;;;;6.46;77.86;101272.81;6367695;22;20029;-73
2021/09/28 05:51:55;;;;;;;1.58;1.58;;;;;;;6.69;78.81;101304.44;6343999;22;20078;-75
2021/09/28 05:54:50;;;;;;;1.33;1.33;;;;;;;6.70;78.67;101295.78;6367174;22;20077;-74
2021/09/28 05:57:34;;;;;;;1.90;1.90;;;;;;;6.70;78.28;101311.38;6349740;22;20380;-74
2021/09/28 06:00:19;;;;;;;2.10;2.00;;;;;;;6.69;79.16;101317.44;6397542;22;20025;-74
2021/09/28 06:03:03;;;;;;;2.35;2.25;;;;;;;6.65;79.10;101300.19;6398765;22;20365;-72
2021/09/28 06:05:47;;;;;;;1.90;1.80;;;;;;;6.72;78.87;101312.19;6396923;22;20029;-73
2021/09/28 06:08:32;;;;;;;2.33;2.22;;;;;;;6.68;79.52;101306.19;6397614;22;20082;-73
2021/09/28 06:11:16;;;;;;;2.65;1.33;;;;;;;6.68;79.30;101308.78;6397111;22;20488;-74
2021/09/28 06:14:01;;;;;;;2.03;1.80;;;;;;;6.78;78.79;101323.31;6399138;22;20050;-73
2021/09/28 06:16:45;;;;;;;2.60;2.50;;;;;;;6.84;78.54;101330.16;6398911;22;20053;-76
2021/09/28 06:19:30;;;;;;;1.95;1.92;;;;;;;6.81;78.29;101312.03;6397408;22;20082;-75
2021/09/28 06:22:15;;;;;;;1.67;1.58;;;;;;;6.92;78.73;101325.72;6374828;22;20109;-76
2021/09/28 06:24:59;;;;;;;1.77;1.70;;;;;;;6.98;76.62;101319.56;6398795;22;20086;-76
2021/09/28 06:27:47;;;;;;;1.67;1.67;;;;;;;7.01;75.29;101330.75;6397038;22;20024;-77
2021/09/28 06:30:31;;;;;;;1.50;1.50;;;;;;;7.06;74.99;101330.69;6402249;22;20424;-74
2021/09/28 06:33:44;;;;;;;1.42;1.42;;;;;;;7.13;74.47;101345.28;6375093;22;20032;-76
2021/09/28 06:36:41;;;;;;;1.98;1.88;;;;;;;7.10;73.75;101338.38;6392832;22;20098;-74
2021/09/28 06:39:26;;;;;;;0.95;0.95;;;;;;;7.19;74.73;101339.97;6396771;22;20472;-73
2021/09/28 06:42:10;;;;;;;1.70;1.63;;;;;;;7.19;73.78;101345.16;6396024;22;20074;-75
2021/09/28 06:44:55;;;;;;;3.05;2.78;;;;;;;7.18;74.29;101344.31;6396386;22;20024;-75
2021/09/28 06:47:40;;;;;;;14.35;1.90;;;;;;;7.26;74.06;101347.63;6396447;22;20369;-75
2021/09/28 06:50:25;;;;;;;1.92;1.83;;;;;;;7.22;73.66;101339.91;6395417;22;20055;-76
2021/09/28 06:53:10;;;;;;;1.30;1.30;;;;;;;7.16;74.38;101345.22;6395441;22;20064;-77
2021/09/28 06:55:54;;;;;;;4.53;1.75;;;;;;;7.21;73.12;101335.59;6395631;22;20046;-74
2021/09/28 06:58:39;;;;;;;1.52;1.50;;;;;;;7.26;73.45;101347.63;6395497;22;20029;-73
2021/09/28 07:01:23;;;;;;;2.58;2.45;;;;;;;7.21;73.29;101343.41;6372956;22;20480;-75
2021/09/28 07:04:08;;;;;;;1.33;1.33;;;;;;;7.24;73.60;101349.41;6396753;22;20098;-74
2021/09/28 07:06:52;;;;;;;2.28;2.17;;;;;;;7.24;73.20;101341.59;6396957;22;20087;-73
2021/09/28 07:09:37;;;;;;;1.63;1.55;;;;;;;7.30;73.14;101353.63;6396864;22;20025;-73
2021/09/28 07:12:21;;;;;;;1.42;1.42;;;;;;;7.31;73.00;101356.22;6396104;22;20028;-73
2021/09/28 07:15:06;;;;;;;2.03;1.95;;;;;;;7.37;73.83;101355.22;6395953;22;20606;-75
2021/09/28 07:17:53;;;;;;;1.25;1.25;;;;;;;7.45;73.77;101360.31;6396058;22;20400;-75
2021/09/28 07:20:38;;;;;;;1.98;1.88;;;;;;;7.42;74.48;101347.38;6397132;22;20051;-74
2021/09/28 07:23:25;;;;;;;1.55;1.55;;;;;;;7.40;74.27;101364.69;6395543;22;20025;-72
2021/09/28 07:26:10;;;;;;;2.50;2.30;;;;;;;7.39;74.55;101363.88;6372851;22;20053;-72
2021/09/28 07:28:54;;;;;;;4.45;2.30;;;;;;;7.44;74.21;101369.84;6397100;22;20035;-73
2021/09/28 07:31:39;;;;;;;2.42;2.05;;;;;;;7.38;75.17;101371.69;6395882;22;20021;-74
2021/09/28 07:34:23;;;;;;;1.98;1.92;;;;;;;7.51;74.31;101370.59;6396378;22;20074;-74
2021/09/28 07:37:08;;;;;;;4.03;3.72;;;;;;;7.47;73.75;101353.31;6403196;22;20028;-75
2021/09/28 07:39:52;;;;;;;1.98;1.98;;;;;;;7.46;74.42;101369.81;6403541;22;20376;-73
2021/09/28 07:42:38;;;;;;;1.73;1.73;;;;;;;7.40;74.71;101385.50;6401477;22;20048;-75
2021/09/28 07:45:22;;;;;;;2.25;2.15;;;;;;;7.24;74.70;101385.75;6397475;22;20074;-73
2021/09/28 07:48:08;;;;;;;3.45;3.25;;;;;;;7.21;75.44;101391.00;6396374;22;20094;-77
2021/09/28 07:50:52;;;;;;;1.85;1.75;;;;;;;7.32;74.00;101389.09;6397445;22;20384;-74
2021/09/28 07:53:42;;;;;;;2.42;2.33;;;;;;;7.53;73.90;101393.06;6397193;22;20083;-76
2021/09/28 07:56:27;;;;;;;2.60;2.50;;;;;;;7.57;72.52;101381.72;6395530;22;20113;-77
2021/09/28 07:59:12;;;;;;;2.33;2.20;;;;;;;7.59;72.45;101382.53;6398976;22;20090;-76
2021/09/28 08:01:57;;;;;;;2.28;2.17;;;;;;;7.48;70.31;101388.81;6397423;22;20078;-75
2021/09/28 08:04:41;;;;;;;3.17;2.88;;;;;;;7.31;68.74;101386.50;6396756;22;20538;-73
2021/09/28 08:07:26;;;;;;;5.78;2.13;;;;;;;7.30;69.27;101406.44;6394916;22;20369;-74
2021/09/28 08:10:12;;;;;;;2.88;2.67;;;;;;;7.40;69.42;101408.88;6394775;22;20029;-75
2021/09/28 08:12:59;;;;;;;1.60;1.60;;;;;;;7.50;69.32;101418.22;6396630;22;20063;-75
2021/09/28 08:15:45;;;;;;;0.98;0.98;;;;;;;7.59;69.31;101415.50;6395700;22;20024;-75
2021/09/28 08:18:29;;;;;;;1.60;1.58;;;;;;;7.58;68.95;101403.38;6395278;22;20029;-74
2021/09/28 08:21:14;;;;;;;1.80;1.70;;;;;;;7.63;68.93;101424.94;6372535;22;20071;-75
2021/09/28 08:23:58;;;;;;;1.33;1.33;;;;;;;7.66;67.39;101424.88;6372205;22;20120;-74
2021/09/28 08:29:46;;;;;;;1.73;1.63;;;;;;;7.58;67.46;101411.16;6399279;22;20420;-78
2021/09/28 08:32:40;;;;;;;2.92;2.15;;;;;;;7.67;67.68;101413.59;6398921;22;20070;-79
2021/09/28 08:35:25;;;;;;;2.50;2.40;;;;;;;7.68;68.62;101418.78;6399411;22;20029;-79
2021/09/28 08:38:10;;;;;;;1.25;1.25;;;;;;;7.81;67.87;101432.41;6374648;22;20028;-81
2021/09/28 08:40:55;;;;;;;8.13;2.97;;;;;;;7.80;67.97;101418.56;6398963;22;20029;-78
2021/09/28 08:43:40;;;;;;;1.35;1.30;;;;;;;7.94;67.50;101425.25;6398829;22;20029;-78
2021/09/28 08:46:25;;;;;;;1.17;1.17;;;;;;;7.90;67.28;101434.84;6396641;22;20028;-79
2021/09/28 08:49:09;;;;;;;3.22;1.60;;;;;;;7.86;65.92;101422.78;6398618;22;20033;-79
2021/09/28 08:51:54;;;;;;;1.00;1.00;;;;;;;7.99;66.27;101442.47;6397736;22;20082;-79
2021/09/28 08:54:39;;;;;;;1.70;1.63;;;;;;;7.84;67.81;101450.56;6399517;22;20060;-81
2021/09/28 08:57:24;;;;;;;1.67;1.58;;;;;;;7.89;67.02;101451.31;6396874;22;20360;-79
2021/09/28 09:00:18;;;;;;;1.65;1.65;;;;;;;7.85;67.66;101454.88;6398361;22;20032;-81
2021/09/28 09:03:02;;;;;;;3.17;1.70;;;;;;;7.84;67.84;101445.34;6397545;22;20105;-80
2021/09/28 09:05:52;;;;;;;1.33;1.33;;;;;;;7.98;68.31;101442.50;6401211;22;20078;-79
2021/09/28 09:08:37;;;;;;;5.45;3.63;;;;;;;8.01;67.88;101445.91;6397097;22;20028;-78
2021/09/28 09:11:23;;;;;;;7.88;3.67;;;;;;;7.92;67.63;101456.47;6396729;22;20105;-71
2021/09/28 09:14:26;;;;;;;7.15;4.97;;;;;;;8.08;66.71;101465.69;6374248;22;20029;-73
2021/09/28 09:17:10;;;;;;;3.80;3.22;;;;;;;7.83;66.47;101454.91;6374223;22;20108;-74
2021/09/28 09:19:55;;;;;;;6.57;3.55;;;;;;;7.94;67.17;101454.72;6374767;22;20062;-73
2021/09/28 09:22:39;;;;;;;4.20;3.28;;;;;;;8.12;67.04;101456.94;6374314;22;20132;-73
2021/09/28 09:25:24;;;;;;;2.40;1.52;;;;;;;8.20;66.33;101455.06;6373729;22;20091;-72
2021/09/28 09:28:23;;;;;;;1.77;1.73;;;;;;;8.40;65.93;101459.91;6395657;22;20057;-74
2021/09/28 09:31:31;;;;;;;2.67;2.47;;;;;;;8.84;63.33;101451.16;6375455;22;20406;-76
2021/09/28 09:34:19;;;;;;;1.15;1.15;;;;;;;8.85;64.59;101458.09;6397423;22;20024;-76
2021/09/28 09:37:05;;;;;;;1.40;1.40;;;;;;;8.78;64.23;101454.75;6396457;22;20504;-76
2021/09/28 09:39:53;;;;;;;2.17;1.98;;;;;;;8.74;63.81;101468.72;6397788;22;20032;-76
2021/09/28 09:42:54;;;;;;;1.23;1.23;;;;;;;8.66;62.72;101455.03;6397866;22;20025;-76
2021/09/28 09:45:38;;;;;;;3.80;3.28;;;;;;;8.49;63.84;101471.88;6397907;22;20039;-74
2021/09/28 09:48:27;;;;;;;0.98;0.98;;;;;;;8.58;63.47;101476.88;6397693;22;20024;-75
2021/09/28 09:51:14;;;;;;;2.70;2.60;;;;;;;8.60;64.92;101476.00;6394979;22;20061;-75
2021/09/28 09:53:59;;;;;;;2.05;1.90;;;;;;;8.56;64.90;101476.94;6397099;22;20377;-73
2021/09/28 09:56:49;;;;;;;1.80;1.75;;;;;;;8.64;64.05;101476.75;6396313;22;20028;-75
2021/09/28 09:59:34;;;;;;;1.33;1.33;;;;;;;8.73;63.29;101474.00;6396458;22;20029;-74
2021/09/28 10:02:18;;;;;;;1.02;1.02;;;;;;;8.93;61.31;101476.16;6418964;22;20050;-73
2021/09/28 10:05:03;;;;;;;1.27;1.27;;;;;;;9.12;62.08;101478.31;6396938;22;20036;-74
2021/09/28 10:07:51;;;;;;;1.25;1.25;;;;;;;9.13;62.50;101472.19;6373539;22;20062;-73
2021/09/28 10:10:35;;;;;;;1.80;1.70;;;;;;;9.30;61.43;101477.88;6396736;22;20099;-75
2021/09/28 10:13:46;;;;;;;1.60;1.60;;;;;;;9.18;61.67;101491.22;6396048;22;20032;-75
2021/09/28 10:16:37;;;;;;;2.13;2.03;;;;;;;8.70;61.92;101487.06;6397930;22;20054;-77
2021/09/28 10:19:28;;;;;;;1.35;1.35;;;;;;;8.74;62.94;101493.91;6397614;22;20278;-79
2021/09/28 10:22:53;;;;;;;2.08;1.92;;;;;;;8.88;62.19;101474.50;6396867;22;20113;-71
2021/09/28 10:25:46;;;;;;;1.23;1.23;;;;;;;8.97;61.49;101480.38;6396116;22;20121;-73
2021/09/28 10:28:31;;;;;;;1.23;1.23;;;;;;;9.29;59.21;101478.75;6396917;22;20035;-72
2021/09/28 10:31:29;;;;;;;1.17;1.17;;;;;;;9.17;59.71;101479.06;6393827;22;20488;-74
2021/09/28 10:34:16;;;;;;;2.88;2.67;;;;;;;9.42;60.24;101474.16;6398008;22;20070;-81
2021/09/28 10:37:00;;;;;;;1.27;1.27;;;;;;;9.58;58.97;101465.06;6334599;22;20066;-82
2021/09/28 10:39:46;;;;;;;1.60;1.60;;;;;;;9.63;58.84;101467.53;6353306;22;20028;-82
2021/09/28 10:42:59;;;;;;;1.10;1.10;;;;;;;9.51;59.05;101468.69;6355249;22;20028;-82
2021/09/28 10:45:44;;;;;;;1.52;1.42;;;;;;;9.42;60.38;101488.00;6353487;22;20481;-81
2021/09/28 10:48:36;;;;;;;7.57;1.42;;;;;;;9.19;60.61;101471.22;6374127;22;20109;-83
2021/09/28 10:51:47;;;;;;;1.58;1.45;;;;;;;8.90;59.90;101475.31;6353376;22;20056;-84
2021/09/28 10:54:32;;;;;;;0.77;0.77;;;;;;;9.00;60.50;101477.75;6356195;22;20029;-85
2021/09/28 10:57:17;;;;;;;0.90;0.90;;;;;;;8.75;59.50;101472.19;6353285;22;20058;-83
2021/09/28 11:00:04;;;;;;;0.70;0.70;;;;;;;9.26;58.74;101475.41;6360386;22;20338;-86
2021/09/28 11:02:57;;;;;;;1.25;1.25;;;;;;;9.81;58.01;101478.38;6417428;22;20035;-89
2021/09/28 23:31:45;;;;;;;2.20;2.17;;;;;;;2.48;89.94;101869.34;6428904;22;20021;-75
2021/09/28 23:34:30;;;;;;;2.22;2.22;;;;;;;2.58;90.38;101872.03;6430082;22;20027;-76
2021/09/28 23:37:14;;;;;;;2.50;2.40;;;;;;;2.74;90.95;101865.31;6430677;22;20032;-74
2021/09/28 23:39:58;;;;;;;3.22;2.47;;;;;;;2.90;90.58;101864.59;6428845;22;20369;-75
2021/09/28 23:42:43;;;;;;;2.58;2.47;;;;;;;2.97;90.63;101876.69;6430121;22;20513;-74
2021/09/28 23:45:27;;;;;;;19.77;3.47;;;;;;;3.17;91.09;101873.41;6429819;22;20114;-72
2021/09/28 23:48:12;;;;;;;9.23;2.55;;;;;;;2.94;90.42;101878.38;6430372;22;20479;-74
2021/09/28 23:50:56;;;;;;;10.23;3.83;;;;;;;2.98;90.81;101874.94;6428754;22;20364;-74
2021/09/28 23:53:41;;;;;;;9.30;3.55;;;;;;;2.98;91.19;101874.94;6429850;22;20029;-73
2021/09/28 23:56:25;;;;;;;2.42;1.75;;;;;;;2.90;90.94;101871.47;6405562;22;20486;-75
2021/09/28 23:59:10;;;;;;;2.17;2.08;;;;;;;2.81;90.97;101880.00;6430046;22;20036;-77
